Time;durP1;ratioP1;P1;durP2;ratioP2;P2;SDS_P1;SDS_P2;PMS_P1;PMS_P2;Temp;Humidity;BMP_temperature;BMP_pressure;BME280_temperature;BME280_humidity;BME280_pressure;Samples;Min_cycle;Max_cycle;Signal;HPM_P1;HPM_P2
2023/11/27 00:01:42;;;;;;;4.03;1.97;;;4.00;99.90;;;4.42;100.00;97684.44;5016518;28;20937;-80
2023/11/27 00:04:12;;;;;;;9.07;2.30;;;4.00;99.90;;;4.42;100.00;97690.41;5016702;28;20503;-81
2023/11/27 00:06:40;;;;;;;5.13;2.03;;;4.00;99.90;;;4.42;100.00;97681.84;5017912;28;20552;-81
2023/11/27 00:09:10;;;;;;;2.10;1.90;;;3.90;99.90;;;4.45;100.00;97679.75;5015554;28;20718;-80
2023/11/27 00:11:38;;;;;;;10.37;2.20;;;3.90;99.90;;;4.45;100.00;97676.34;5016302;28;20476;-80
2023/11/27 00:14:08;;;;;;;3.37;2.30;;;3.90;99.90;;;4.43;100.00;97666.16;5016810;28;20478;-80
2023/11/27 00:16:36;;;;;;;9.83;2.27;;;3.90;99.90;;;4.39;100.00;97669.22;5015603;28;20462;-80
2023/11/27 00:19:05;;;;;;;4.90;2.63;;;3.90;99.90;;;4.37;100.00;97666.00;5017510;28;21071;-80
2023/11/27 00:21:35;;;;;;;4.63;2.07;;;3.80;99.90;;;4.36;100.00;97665.19;5016945;28;20485;-81
2023/11/27 00:24:04;;;;;;;5.90;2.60;;;3.80;99.90;;;4.32;100.00;97658.69;5015397;28;20505;-81
2023/11/27 00:26:33;;;;;;;6.30;2.60;;;3.80;99.90;;;4.34;100.00;97655.97;5014337;28;20466;-80
2023/11/27 00:29:01;;;;;;;6.97;2.70;;;3.90;99.90;;;4.38;100.00;97663.22;5013110;28;20465;-80
2023/11/27 00:31:31;;;;;;;2.63;2.10;;;3.90;99.90;;;4.40;100.00;97663.09;5014685;28;20955;-80
2023/11/27 00:34:00;;;;;;;6.00;2.57;;;3.90;99.90;;;4.44;100.00;97664.41;5015100;28;20478;-81
2023/11/27 00:36:29;;;;;;;7.50;2.90;;;3.90;99.90;;;4.44;100.00;97661.81;5015816;28;21037;-80
2023/11/27 00:38:59;;;;;;;3.37;2.00;;;3.90;99.90;;;4.49;100.00;97656.94;5015568;28;20508;-80
2023/11/27 00:41:27;;;;;;;5.90;2.30;;;3.90;99.90;;;4.44;100.00;97657.41;5015771;28;20470;-80
2023/11/27 00:43:55;;;;;;;4.87;2.50;;;3.90;99.90;;;4.45;100.00;97658.22;5013115;28;20528;-80
2023/11/27 00:46:24;;;;;;;4.60;2.63;;;3.90;99.90;;;4.48;100.00;97644.97;5014779;28;20469;-80
2023/11/27 00:48:52;;;;;;;4.00;2.50;;;4.00;99.90;;;4.45;100.00;97643.50;5014914;28;20472;-80
2023/11/27 00:51:21;;;;;;;6.27;2.27;;;4.00;99.90;;;4.45;100.00;97635.75;5016175;28;20589;-80
2023/11/27 00:53:49;;;;;;;4.03;2.30;;;3.90;99.90;;;4.43;100.00;97629.94;5016692;28;20475;-80
2023/11/27 00:56:19;;;;;;;2.67;2.17;;;3.90;99.90;;;4.44;100.00;97630.75;5016541;28;20458;-80
2023/11/27 00:58:47;;;;;;;7.80;2.80;;;3.90;99.90;;;4.45;100.00;97627.16;5016689;28;20467;-80
2023/11/27 01:01:16;;;;;;;8.33;2.40;;;3.80;99.90;;;4.40;100.00;97630.25;5024624;28;20498;-80
2023/11/27 01:03:44;;;;;;;4.33;2.27;;;3.90;99.90;;;4.38;100.00;97621.81;5016189;28;20457;-80
2023/11/27 01:06:14;;;;;;;3.80;1.87;;;3.90;99.90;;;4.37;100.00;97624.59;5017020;28;20548;-80
2023/11/27 01:08:43;;;;;;;5.73;2.47;;;3.90;99.90;;;4.43;100.00;97624.75;5016228;28;20458;-80
2023/11/27 01:11:12;;;;;;;2.77;2.20;;;4.00;99.90;;;4.44;100.00;97616.00;5016220;28;20950;-80
2023/11/27 01:13:42;;;;;;;4.63;2.20;;;3.90;99.90;;;4.42;100.00;97606.78;5016276;28;20462;-80
2023/11/27 01:16:11;;;;;;;13.93;2.07;;;3.90;99.90;;;4.43;100.00;97598.06;5014443;28;20494;-80
2023/11/27 01:18:39;;;;;;;3.07;2.20;;;3.80;99.90;;;4.40;100.00;97593.19;5016868;28;20459;-80
2023/11/27 01:21:08;;;;;;;5.03;1.67;;;3.90;99.90;;;4.43;100.00;97588.53;5014770;28;20463;-80
2023/11/27 01:23:37;;;;;;;9.40;1.87;;;3.80;99.90;;;4.43;100.00;97588.53;5017153;28;20471;-80
2023/11/27 01:26:06;;;;;;;8.13;2.23;;;3.80;99.90;;;4.45;100.00;97585.75;5015317;28;20454;-80
2023/11/27 01:28:36;;;;;;;7.90;2.63;;;3.80;99.90;;;4.43;100.00;97583.34;5016306;28;20727;-80
2023/11/27 01:31:06;;;;;;;5.30;2.53;;;3.70;99.90;;;4.41;100.00;97569.72;5015427;28;20475;-80
2023/11/27 01:33:34;;;;;;;14.40;1.70;;;3.80;99.90;;;4.43;100.00;97573.00;5014166;28;20478;-80
2023/11/27 01:36:04;;;;;;;6.83;2.50;;;3.80;99.90;;;4.41;100.00;97569.72;5013792;28;20562;-80
2023/11/27 01:38:32;;;;;;;3.10;2.00;;;3.70;99.90;;;4.43;100.00;97556.66;5013131;28;20474;-80
2023/11/27 01:41:01;;;;;;;5.83;2.37;;;3.80;99.90;;;4.39;100.00;97563.09;5015631;28;20459;-80
2023/11/27 01:43:29;;;;;;;5.77;2.10;;;3.80;99.90;;;4.38;100.00;97561.47;5015808;28;20477;-80
2023/11/27 01:46:21;;;;;;;5.17;2.20;;;3.70;99.90;;;4.33;100.00;97556.00;5017130;28;20527;-80
2023/11/27 01:48:53;;;;;;;16.20;2.30;;;3.80;99.90;;;4.33;100.00;97556.81;5019746;28;20454;-79
2023/11/27 01:51:22;;;;;;;5.73;2.63;;;3.70;99.90;;;4.33;100.00;97554.22;5017241;28;20462;-80
2023/11/27 01:53:53;;;;;;;4.77;2.20;;;3.70;99.90;;;4.34;100.00;97547.25;5017862;28;21039;-80
2023/11/27 01:56:24;;;;;;;4.13;2.17;;;3.70;99.90;;;4.33;100.00;97546.44;5019509;28;20819;-80
2023/11/27 01:58:56;;;;;;;11.40;2.40;;;3.70;99.90;;;4.38;100.00;97546.75;5018859;28;20488;-80
2023/11/27 02:01:29;;;;;;;8.20;2.33;;;3.60;99.90;;;4.36;100.00;97548.72;5020483;28;20454;-80
2023/11/27 02:03:58;;;;;;;6.63;2.40;;;3.70;99.90;;;4.36;100.00;97546.13;5021142;28;20470;-81
2023/11/27 02:06:26;;;;;;;3.13;2.13;;;3.70;99.90;;;4.36;100.00;97534.97;5018292;28;20553;-80
2023/11/27 02:08:56;;;;;;;8.90;2.70;;;3.60;99.90;;;4.36;100.00;97530.59;5019938;28;20477;-80
2023/11/27 02:11:26;;;;;;;6.03;2.43;;;3.70;99.90;;;4.36;100.00;97524.59;5019542;28;20466;-80
2023/11/27 02:13:54;;;;;;;7.70;2.30;;;3.70;99.90;;;4.29;100.00;97515.88;5018406;28;20515;-80
2023/11/27 02:16:26;;;;;;;4.30;2.07;;;3.70;99.90;;;4.33;100.00;97515.41;5017037;28;21068;-80
2023/11/27 02:18:54;;;;;;;19.97;2.83;;;3.60;99.90;;;4.33;100.00;97505.03;5019241;28;20467;-80
2023/11/27 02:21:23;;;;;;;2.50;1.93;;;3.60;99.90;;;4.31;100.00;97503.56;5018432;28;20491;-80
2023/11/27 02:23:53;;;;;;;5.07;2.27;;;3.50;99.90;;;4.33;100.00;97497.28;5017510;28;20497;-80
2023/11/27 02:26:21;;;;;;;7.07;2.33;;;3.50;99.90;;;4.31;100.00;97499.19;5016099;28;21526;-81
2023/11/27 02:28:50;;;;;;;5.20;2.13;;;3.60;99.90;;;4.30;100.00;97494.22;5016612;28;20470;-80
2023/11/27 02:31:18;;;;;;;5.70;2.33;;;3.70;99.90;;;4.36;100.00;97501.31;5024765;28;20484;-80
2023/11/27 02:33:47;;;;;;;3.17;2.77;;;3.60;99.90;;;4.33;100.00;97491.28;5021987;28;20494;-80
2023/11/27 02:36:17;;;;;;;3.07;1.60;;;3.70;99.90;;;4.38;100.00;97483.84;5016576;28;20473;-80
2023/11/27 02:38:45;;;;;;;6.13;2.30;;;3.60;99.90;;;4.33;100.00;97478.34;5016871;28;20468;-80
2023/11/27 02:41:15;;;;;;;4.33;1.93;;;3.60;99.90;;;4.29;100.00;97470.09;5016185;28;20471;-80
2023/11/27 02:43:44;;;;;;;5.83;2.63;;;3.60;99.90;;;4.31;100.00;97475.91;5015950;28;20985;-81
2023/11/27 02:46:15;;;;;;;11.37;2.70;;;3.50;99.90;;;4.32;100.00;97468.97;5016617;28;20489;-81
2023/11/27 02:48:43;;;;;;;9.00;2.50;;;3.60;99.90;;;4.31;100.00;97465.56;5017320;28;20489;-80
2023/11/27 02:51:12;;;;;;;4.20;2.40;;;3.70;99.90;;;4.32;100.00;97462.00;5019167;28;20469;-80
2023/11/27 02:53:40;;;;;;;10.90;2.50;;;3.60;99.90;;;4.27;100.00;97456.50;5017219;28;20536;-80
2023/11/27 02:56:09;;;;;;;3.23;2.23;;;3.60;99.90;;;4.29;100.00;97456.34;5018180;28;20493;-80
2023/11/27 02:58:39;;;;;;;7.90;2.23;;;3.70;99.90;;;4.27;100.00;97453.91;5020199;28;20794;-80
2023/11/27 03:01:08;;;;;;;7.27;3.00;;;3.60;99.90;;;4.31;100.00;97450.03;5018397;28;20978;-80
2023/11/27 03:03:39;;;;;;;3.90;2.10;;;3.60;99.90;;;4.25;100.00;97445.53;5020393;28;20469;-80
2023/11/27 03:06:08;;;;;;;7.00;2.30;;;3.60;99.90;;;4.24;100.00;97443.88;5018508;28;20498;-80
2023/11/27 03:08:37;;;;;;;3.13;2.23;;;3.70;99.90;;;4.21;100.00;97433.88;5016868;28;20522;-80
2023/11/27 03:11:06;;;;;;;3.50;2.30;;;3.70;99.90;;;4.22;100.00;97440.66;5016978;28;20481;-81
2023/11/27 03:13:35;;;;;;;5.40;2.50;;;3.70;99.90;;;4.21;100.00;97423.53;5016431;28;20952;-81
2023/11/27 03:16:05;;;;;;;7.80;2.63;;;3.80;99.90;;;4.21;100.00;97423.53;5018021;28;20470;-80
2023/11/27 03:18:34;;;;;;;9.87;2.70;;;3.60;99.90;;;4.25;100.00;97414.47;5016200;28;20462;-81
2023/11/27 03:21:04;;;;;;;9.50;2.30;;;3.70;99.90;;;4.17;100.00;97411.06;5017468;28;20492;-80
2023/11/27 03:23:33;;;;;;;5.07;2.40;;;3.60;99.90;;;4.17;100.00;97408.47;5016027;28;20467;-80
2023/11/27 03:26:04;;;;;;;5.60;2.03;;;3.70;99.90;;;4.18;100.00;97407.50;5015421;28;20490;-80
2023/11/27 03:28:32;;;;;;;3.80;2.00;;;3.70;99.90;;;4.19;100.00;97404.78;5016283;28;20461;-80
2023/11/27 03:31:00;;;;;;;4.13;2.37;;;3.60;99.90;;;4.22;100.00;97394.09;5017020;28;20462;-80
2023/11/27 03:33:30;;;;;;;7.60;2.40;;;3.60;99.90;;;4.22;100.00;97396.69;5016829;28;21013;-80
2023/11/27 03:35:59;;;;;;;3.57;2.13;;;3.60;99.90;;;4.21;100.00;97396.84;5015785;28;20455;-80
2023/11/27 03:38:28;;;;;;;9.37;2.37;;;3.60;99.90;;;4.24;100.00;97391.34;5016016;28;20476;-80
2023/11/27 03:40:55;;;;;;;3.53;2.27;;;3.60;99.90;;;4.21;100.00;97382.13;5018469;28;20466;-81
2023/11/27 03:43:28;;;;;;;4.00;2.50;;;3.60;99.90;;;4.19;100.00;97378.09;5018142;28;20475;-80
2023/11/27 03:45:56;;;;;;;7.13;2.30;;;3.60;99.90;;;4.14;100.00;97380.34;5015614;28;20545;-80
2023/11/27 03:48:25;;;;;;;5.83;2.23;;;3.70;99.90;;;4.11;100.00;97372.91;5016475;28;20462;-80
2023/11/27 03:50:54;;;;;;;5.87;2.77;;;3.60;99.90;;;4.12;100.00;97372.78;5016329;28;20482;-80
2023/11/27 03:53:23;;;;;;;7.60;1.90;;;3.60;99.90;;;4.04;100.00;97372.75;5016445;28;20469;-80
2023/11/27 03:55:52;;;;;;;11.67;2.57;;;3.50;99.90;;;4.08;100.00;97374.06;5018859;28;20462;-80
2023/11/27 03:58:22;;;;;;;4.13;2.40;;;3.50;99.90;;;4.10;100.00;97368.72;5016591;28;20516;-78
2023/11/27 04:00:50;;;;;;;4.00;1.87;;;3.60;99.90;;;4.13;100.00;97365.81;5021070;28;20463;-79
2023/11/27 04:03:19;;;;;;;3.10;1.93;;;3.50;99.90;;;4.12;100.00;97369.38;5025494;28;20491;-80
2023/11/27 04:05:48;;;;;;;7.23;2.40;;;3.60;99.90;;;4.12;100.00;97362.41;5015072;28;20490;-80
2023/11/27 04:08:18;;;;;;;4.20;2.83;;;3.60;99.90;;;4.11;100.00;97355.63;5012259;28;21033;-78
2023/11/27 04:10:47;;;;;;;8.07;3.53;;;3.60;99.90;;;4.14;100.00;97357.06;5011826;28;20460;-79
2023/11/27 04:13:15;;;;;;;8.70;4.20;;;3.50;99.90;;;4.06;100.00;97342.38;5012879;28;20527;-80
2023/11/27 04:15:44;;;;;;;5.87;3.13;;;3.60;99.90;;;4.11;100.00;97345.28;5013072;28;20529;-80
2023/11/27 04:18:12;;;;;;;10.73;4.00;;;3.50;99.90;;;4.06;100.00;97347.56;5013206;28;20478;-80
2023/11/27 04:20:41;;;;;;;8.40;3.97;;;3.60;99.90;;;4.07;100.00;97344.78;5013063;28;20469;-80
2023/11/27 04:23:09;;;;;;;5.83;2.90;;;3.60;99.90;;;4.08;100.00;97340.44;5013339;28;20470;-80
2023/11/27 04:25:39;;;;;;;6.67;2.50;;;3.60;99.90;;;4.10;100.00;97341.06;5012260;28;20497;-79
2023/11/27 04:28:07;;;;;;;11.70;2.70;;;3.50;99.90;;;4.11;100.00;97329.75;5014378;28;20976;-80
2023/11/27 04:30:36;;;;;;;4.07;2.33;;;3.50;99.90;;;4.13;100.00;97332.97;5011075;28;20550;-80
2023/11/27 04:33:04;;;;;;;4.40;2.17;;;3.50;99.90;;;4.15;100.00;97331.03;5012922;28;20473;-75
2023/11/27 04:35:33;;;;;;;6.97;2.67;;;3.50;99.90;;;4.13;100.00;97327.78;5016268;28;20457;-75
2023/11/27 04:38:02;;;;;;;4.47;2.73;;;3.60;99.90;;;4.12;100.00;97321.03;5016066;28;20480;-77
2023/11/27 04:40:30;;;;;;;10.73;2.47;;;3.50;99.90;;;4.14;100.00;97319.06;5012447;28;20470;-76
2023/11/27 04:43:01;;;;;;;10.93;2.30;;;3.50;99.90;;;4.10;100.00;97316.97;5017843;28;21004;-76
2023/11/27 04:45:29;;;;;;;4.17;2.33;;;3.60;99.90;;;4.12;100.00;97313.28;5013308;28;20469;-76
2023/11/27 04:47:58;;;;;;;5.50;2.60;;;3.50;99.90;;;4.12;100.00;97315.03;5014614;28;20458;-76
2023/11/27 04:50:26;;;;;;;3.63;2.33;;;3.60;99.90;;;4.09;100.00;97310.22;5013100;28;20541;-76
2023/11/27 04:52:55;;;;;;;10.23;2.67;;;3.60;99.90;;;4.12;100.00;97307.28;5016422;28;20481;-76
2023/11/27 04:55:23;;;;;;;10.23;3.13;;;3.50;99.90;;;4.11;100.00;97303.06;5015618;28;21645;-76
2023/11/27 04:57:52;;;;;;;4.53;2.10;;;3.60;99.90;;;4.14;100.00;97306.13;5016729;28;20874;-76
2023/11/27 05:00:23;;;;;;;11.20;2.63;;;3.50;99.90;;;4.14;100.00;97295.78;5015674;28;20869;-76
2023/11/27 05:02:51;;;;;;;3.83;2.33;;;3.50;99.90;;;4.13;100.00;97296.75;5016837;28;20493;-76
2023/11/27 05:05:20;;;;;;;5.70;2.10;;;3.50;99.90;;;4.16;100.00;97296.44;5014722;28;20822;-76
2023/11/27 05:07:49;;;;;;;6.77;2.30;;;3.50;99.90;;;4.17;100.00;97287.69;5014568;28;20614;-76
2023/11/27 05:10:17;;;;;;;18.30;7.57;;;3.50;99.90;;;4.14;100.00;97282.84;5011444;28;20469;-75
2023/11/27 05:12:46;;;;;;;3.33;2.03;;;3.50;99.90;;;4.12;100.00;97286.59;5013316;28;20492;-75
2023/11/27 05:15:15;;;;;;;6.73;2.07;;;3.50;99.90;;;4.09;100.00;97282.56;5015931;28;20520;-76
2023/11/27 05:17:47;;;;;;;6.60;2.57;;;3.60;99.90;;;4.13;100.00;97281.22;5013421;28;20474;-76
2023/11/27 05:20:16;;;;;;;5.73;2.33;;;3.60;99.90;;;4.03;100.00;97272.84;5020083;28;20453;-76
2023/11/27 05:22:45;;;;;;;5.43;2.10;;;3.50;99.90;;;4.08;100.00;97275.78;5019827;28;20521;-76
2023/11/27 05:25:14;;;;;;;5.27;2.20;;;3.50;99.90;;;4.05;100.00;97268.34;5022203;28;21215;-75
2023/11/27 05:27:42;;;;;;;7.93;2.23;;;3.60;99.90;;;4.04;100.00;97262.34;5018966;28;20898;-76
2023/11/27 05:30:12;;;;;;;3.77;2.10;;;3.50;99.90;;;4.01;100.00;97257.53;5017745;28;20466;-76
2023/11/27 05:32:41;;;;;;;3.33;1.80;;;3.50;99.90;;;4.05;100.00;97252.81;5023289;28;20548;-75
2023/11/27 05:35:12;;;;;;;5.40;2.80;;;3.50;99.90;;;4.05;100.00;97247.66;5022970;28;20523;-76
2023/11/27 05:37:40;;;;;;;5.43;1.93;;;3.50;99.90;;;4.10;100.00;97249.72;5018131;28;20541;-75
2023/11/27 05:40:10;;;;;;;3.23;2.13;;;3.50;99.90;;;4.08;100.00;97247.31;5020804;28;20461;-75
2023/11/27 05:42:40;;;;;;;6.20;2.40;;;3.50;99.90;;;4.10;100.00;97244.53;5019327;28;20466;-76
2023/11/27 05:45:11;;;;;;;4.97;2.20;;;3.50;99.90;;;4.05;100.00;97239.88;5019378;28;20453;-75
2023/11/27 05:47:40;;;;;;;5.10;1.97;;;3.50;99.90;;;3.99;100.00;97235.38;5017574;28;20478;-73
2023/11/27 05:50:12;;;;;;;5.03;2.30;;;3.40;99.90;;;4.03;100.00;97239.22;5016675;28;20881;-76
2023/11/27 05:52:42;;;;;;;13.13;2.73;;;3.50;99.90;;;4.05;100.00;97237.31;5016857;28;20471;-75
2023/11/27 05:55:10;;;;;;;8.70;2.37;;;3.40;99.90;;;4.05;100.00;97235.53;5018707;28;20583;-75
2023/11/27 05:57:39;;;;;;;3.60;1.80;;;3.40;99.90;;;4.04;100.00;97233.09;5015988;28;20507;-76
2023/11/27 06:00:09;;;;;;;2.90;1.87;;;3.50;99.90;;;4.03;100.00;97215.97;5017088;28;20461;-76
2023/11/27 06:02:40;;;;;;;5.10;2.53;;;3.50;99.90;;;4.01;100.00;97220.50;5017362;28;20894;-75
2023/11/27 06:05:10;;;;;;;4.67;2.00;;;3.30;99.90;;;4.04;100.00;97217.56;5017518;28;20471;-75
2023/11/27 06:07:39;;;;;;;79.97;36.90;;;3.30;99.90;;;4.02;100.00;97206.59;5016211;28;20517;-76
2023/11/27 06:10:08;;;;;;;8.10;3.90;;;3.20;99.90;;;4.01;100.00;97203.22;5016020;28;20473;-75
2023/11/27 06:12:37;;;;;;;5.80;2.07;;;3.30;99.90;;;3.96;100.00;97197.72;5018431;28;20581;-75
2023/11/27 06:15:07;;;;;;;3.53;2.17;;;3.30;99.90;;;3.95;100.00;97203.88;5019151;28;20493;-75
2023/11/27 06:17:35;;;;;;;7.07;2.60;;;3.30;99.90;;;3.89;100.00;97201.13;5018753;28;20484;-76
2023/11/27 06:20:05;;;;;;;2.90;2.27;;;3.40;99.90;;;3.91;100.00;97199.19;5013262;28;20884;-75
2023/11/27 06:22:35;;;;;;;7.90;3.40;;;3.20;99.90;;;3.92;100.00;97187.88;5017151;28;20476;-77
2023/11/27 06:25:07;;;;;;;3.80;1.60;;;3.20;99.90;;;3.96;100.00;97182.19;5017367;28;20547;-75
2023/11/27 06:27:36;;;;;;;4.73;2.30;;;3.20;99.90;;;3.96;100.00;97179.59;5017183;28;20501;-76
2023/11/27 06:30:05;;;;;;;4.00;2.57;;;3.20;99.90;;;3.93;100.00;97186.91;5018891;28;20463;-76
2023/11/27 06:32:36;;;;;;;7.43;2.07;;;3.10;99.90;;;3.88;100.00;97186.59;5019269;28;20466;-77
2023/11/27 06:35:11;;;;;;;4.43;2.23;;;3.30;99.90;;;3.88;100.00;97178.84;5020920;28;20965;-76
2023/11/27 06:37:42;;;;;;;2.43;2.03;;;3.30;99.90;;;3.86;100.00;97178.19;5019833;28;20988;-76
2023/11/27 06:40:13;;;;;;;5.80;2.40;;;3.20;99.90;;;3.84;100.00;97172.38;5019415;28;20462;-77
2023/11/27 06:42:42;;;;;;;4.47;2.70;;;3.20;99.90;;;3.80;100.00;97166.75;5019933;28;20465;-76
2023/11/27 06:45:11;;;;;;;7.10;2.13;;;3.10;99.90;;;3.81;100.00;97162.38;5019150;28;20500;-77
2023/11/27 06:47:40;;;;;;;4.73;2.37;;;3.20;99.90;;;3.81;100.00;97155.44;5017056;28;20505;-77
2023/11/27 06:50:09;;;;;;;4.73;2.30;;;3.20;99.90;;;3.78;100.00;97147.22;5018350;28;20525;-76
2023/11/27 06:52:38;;;;;;;3.87;2.40;;;3.20;99.90;;;3.76;100.00;97149.13;5017832;28;20494;-77
2023/11/27 06:55:09;;;;;;;6.20;2.30;;;3.20;99.90;;;3.72;100.00;97145.28;5018494;28;20462;-77
2023/11/27 06:57:38;;;;;;;4.93;2.33;;;3.00;99.90;;;3.72;100.00;97142.69;5018849;28;20496;-76
2023/11/27 07:00:10;;;;;;;2.20;2.00;;;3.00;99.90;;;3.73;100.00;97128.78;5016348;28;20470;-76
2023/11/27 07:02:40;;;;;;;4.73;2.63;;;3.10;99.90;;;3.74;100.00;97127.84;5026015;28;20465;-76
2023/11/27 07:05:09;;;;;;;5.43;2.47;;;3.20;99.90;;;3.76;100.00;97128.47;5026398;28;20977;-77
2023/11/27 07:07:38;;;;;;;6.93;2.53;;;3.10;99.90;;;3.74;100.00;97130.41;5018489;28;20493;-76
2023/11/27 07:10:11;;;;;;;3.83;2.20;;;3.00;99.90;;;3.77;100.00;97120.53;5019375;28;20981;-77
2023/11/27 07:12:40;;;;;;;4.63;2.33;;;3.00;99.90;;;3.73;100.00;97118.44;5015796;28;20900;-77
2023/11/27 07:15:10;;;;;;;8.40;2.17;;;3.00;99.90;;;3.74;100.00;97114.91;5015781;28;20468;-76
2023/11/27 07:17:40;;;;;;;5.07;2.70;;;3.00;99.90;;;3.77;100.00;97109.41;5015631;28;20467;-77
2023/11/27 07:20:17;;;;;;;8.07;2.30;;;3.00;99.90;;;3.69;100.00;97109.41;5016740;28;20473;-77
2023/11/27 07:22:47;;;;;;;6.27;2.43;;;2.90;99.90;;;3.72;100.00;97109.88;5018652;28;20469;-77
2023/11/27 07:25:17;;;;;;;5.73;2.60;;;3.10;99.90;;;3.74;100.00;97104.56;5018314;28;20534;-76
2023/11/27 07:27:49;;;;;;;7.47;2.97;;;3.00;99.90;;;3.70;100.00;97100.69;5017050;28;20601;-77
2023/11/27 07:30:18;;;;;;;4.63;2.63;;;3.00;99.90;;;3.69;100.00;97104.25;5019194;28;20920;-76
2023/11/27 07:32:46;;;;;;;4.00;2.43;;;3.10;99.90;;;3.61;100.00;97094.72;5019900;28;20477;-77
2023/11/27 07:35:15;;;;;;;7.03;2.40;;;3.10;99.90;;;3.62;100.00;97095.53;5019826;28;20492;-77
2023/11/27 07:37:44;;;;;;;4.70;2.40;;;3.10;99.90;;;3.59;100.00;97086.34;5017387;28;20471;-77
2023/11/27 07:40:14;;;;;;;5.80;2.40;;;3.10;99.90;;;3.48;100.00;97081.53;5020502;28;20466;-76
2023/11/27 07:42:45;;;;;;;5.60;2.27;;;2.80;99.90;;;3.51;100.00;97074.25;5018853;28;21145;-77
2023/11/27 07:45:13;;;;;;;5.50;2.23;;;2.80;99.90;;;3.53;100.00;97067.16;5018384;28;20467;-77
2023/11/27 07:47:42;;;;;;;15.50;2.20;;;2.80;99.90;;;3.52;100.00;97065.53;5017204;28;20490;-76
2023/11/27 07:50:11;;;;;;;3.50;2.10;;;2.70;99.90;;;3.49;100.00;97065.88;5018530;28;20543;-77
2023/11/27 07:52:40;;;;;;;5.73;3.20;;;2.80;99.90;;;3.49;100.00;97068.47;5018289;28;20460;-77
2023/11/27 07:55:12;;;;;;;4.67;2.33;;;2.80;99.90;;;3.48;100.00;97064.25;5019044;28;21056;-77
2023/11/27 07:57:41;;;;;;;5.23;2.27;;;2.80;99.90;;;3.50;100.00;97059.75;5017111;28;20469;-77
2023/11/27 08:00:14;;;;;;;4.77;2.63;;;2.80;99.90;;;3.46;100.00;97052.50;5017771;28;20460;-77
2023/11/27 08:02:44;;;;;;;3.50;1.70;;;2.80;99.90;;;3.47;100.00;97056.69;5017243;28;20474;-77
2023/11/27 08:05:15;;;;;;;8.70;2.53;;;2.80;99.90;;;3.47;100.00;97059.28;5015570;28;20523;-76
2023/11/27 08:07:45;;;;;;;4.00;2.73;;;2.80;99.90;;;3.43;100.00;97048.47;5014101;28;21208;-77
2023/11/27 08:10:15;;;;;;;3.77;2.30;;;2.80;99.90;;;3.41;100.00;97042.66;5016245;28;20459;-77
2023/11/27 08:12:44;;;;;;;2.80;2.03;;;2.70;99.90;;;3.45;100.00;97043.13;5015445;28;20973;-77
2023/11/27 08:15:18;;;;;;;4.27;2.67;;;2.80;99.90;;;3.47;100.00;97036.81;5015551;28;20466;-78
2023/11/27 08:17:49;;;;;;;7.30;2.73;;;2.80;99.90;;;3.51;100.00;97032.91;5014740;28;20962;-76
2023/11/27 08:20:18;;;;;;;9.13;3.03;;;2.70;99.90;;;3.49;100.00;97027.13;5015962;28;20532;-77
2023/11/27 08:22:46;;;;;;;3.20;2.23;;;2.80;99.90;;;3.52;100.00;97024.19;5015718;28;20993;-77
2023/11/27 08:25:16;;;;;;;3.53;2.93;;;2.80;99.90;;;3.45;100.00;97028.44;5016735;28;20526;-76
2023/11/27 08:27:46;;;;;;;9.90;2.37;;;2.90;99.90;;;3.43;100.00;97020.06;5016991;28;21097;-77
2023/11/27 08:30:17;;;;;;;3.47;2.63;;;2.80;99.90;;;3.33;100.00;97013.47;5016122;28;20958;-77
2023/11/27 08:32:47;;;;;;;2.20;2.00;;;2.70;99.90;;;3.39;100.00;97011.03;5020368;28;20971;-77
2023/11/27 08:35:16;;;;;;;8.33;2.80;;;2.80;99.90;;;3.38;100.00;97000.84;5023990;28;20467;-76
2023/11/27 08:37:44;;;;;;;4.13;2.20;;;2.70;99.90;;;3.36;100.00;96993.28;5021517;28;20550;-76
2023/11/27 08:40:14;;;;;;;2.60;2.03;;;2.80;99.90;;;3.34;100.00;96982.28;5017939;28;20472;-76
2023/11/27 08:42:43;;;;;;;2.77;1.90;;;2.70;99.90;;;3.31;100.00;96984.41;5016554;28;21008;-77
2023/11/27 08:45:16;;;;;;;2.83;2.10;;;2.80;99.90;;;3.33;100.00;96972.91;5019004;28;20537;-77
2023/11/27 08:47:50;;;;;;;4.30;2.07;;;2.80;99.90;;;3.33;100.00;96967.75;5017573;28;20871;-77
2023/11/27 08:50:25;;;;;;;3.70;2.20;;;2.80;99.90;;;3.37;100.00;96966.44;5017497;28;20470;-77
2023/11/27 08:52:57;;;;;;;2.90;2.00;;;2.80;99.90;;;3.40;100.00;96958.34;5018700;28;20970;-77
2023/11/27 08:55:29;;;;;;;2.47;1.90;;;2.80;99.90;;;3.41;100.00;96952.22;5020790;28;20514;-76
2023/11/27 08:58:03;;;;;;;2.30;1.70;;;2.80;99.90;;;3.39;100.00;96958.53;5020657;28;20467;-77
2023/11/27 09:00:34;;;;;;;1.93;1.70;;;2.70;99.90;;;3.41;100.00;96948.84;5018857;28;20470;-76
2023/11/27 09:03:05;;;;;;;2.20;1.70;;;2.70;99.90;;;3.36;100.00;96949.34;5020105;28;20525;-76
2023/11/27 09:05:37;;;;;;;2.93;1.90;;;2.70;99.90;;;3.36;100.00;96941.59;5019567;28;20537;-76
2023/11/27 09:08:06;;;;;;;2.70;2.00;;;2.70;99.90;;;3.38;100.00;96941.41;5018820;28;20470;-77
2023/11/27 09:10:37;;;;;;;2.13;1.87;;;2.70;99.90;;;3.37;100.00;96935.44;5018686;28;20819;-77
2023/11/27 09:13:06;;;;;;;1.83;1.73;;;2.70;99.90;;;3.29;100.00;96930.34;5017514;28;20467;-76
2023/11/27 09:15:36;;;;;;;2.03;1.60;;;2.70;99.90;;;3.25;100.00;96933.41;5019193;28;20482;-76
2023/11/27 09:18:06;;;;;;;1.93;1.63;;;2.60;99.90;;;3.20;100.00;96931.34;5018041;28;20958;-77
2023/11/27 09:20:35;;;;;;;3.20;1.63;;;2.50;99.90;;;3.22;100.00;96924.25;5020377;28;20520;-77
2023/11/27 09:23:04;;;;;;;3.07;1.70;;;2.60;99.90;;;3.20;100.00;96925.34;5021070;28;20544;-77
2023/11/27 09:25:33;;;;;;;2.23;1.40;;;2.70;99.90;;;3.18;100.00;96922.97;5021887;28;20469;-76
2023/11/27 09:28:02;;;;;;;2.37;1.73;;;2.60;99.90;;;3.22;100.00;96918.25;5021213;28;20465;-77
2023/11/27 09:30:31;;;;;;;2.80;1.70;;;2.70;99.90;;;3.18;100.00;96911.81;5019126;28;20474;-77
2023/11/27 09:32:59;;;;;;;3.00;1.50;;;2.60;99.90;;;3.16;100.00;96908.63;5019105;28;20461;-76
2023/11/27 09:35:30;;;;;;;2.00;1.60;;;2.60;99.90;;;3.22;100.00;96906.16;5020810;28;20915;-76
2023/11/27 09:37:59;;;;;;;1.93;1.50;;;2.50;99.90;;;3.18;100.00;96894.56;5020256;28;20952;-77
2023/11/27 09:40:40;;;;;;;1.97;1.50;;;2.70;99.90;;;3.20;100.00;96900.34;5019059;28;20558;-76
2023/11/27 09:43:08;;;;;;;1.87;1.67;;;2.70;99.90;;;3.16;100.00;96883.56;5019122;28;20470;-77
2023/11/27 09:45:38;;;;;;;3.53;1.70;;;2.70;99.90;;;3.14;100.00;96888.13;5020087;28;20484;-76
2023/11/27 09:48:10;;;;;;;1.87;1.50;;;2.50;99.90;;;3.13;100.00;96872.78;5020186;28;20476;-77
2023/11/27 09:50:45;;;;;;;2.17;1.60;;;2.40;99.90;;;3.09;100.00;96872.31;5020858;28;20829;-77
2023/11/27 09:53:19;;;;;;;3.23;1.20;;;2.60;99.90;;;3.09;100.00;96872.31;5020024;28;20474;-76
2023/11/27 09:55:52;;;;;;;6.50;1.57;;;2.60;99.90;;;3.08;100.00;96865.56;5020968;28;20477;-77
2023/11/27 09:58:23;;;;;;;4.53;1.50;;;2.60;99.90;;;3.09;100.00;96851.66;5018790;28;20471;-77
2023/11/27 10:00:55;;;;;;;1.43;1.33;;;2.60;99.90;;;3.12;100.00;96841.00;5018914;28;20488;-76
2023/11/27 10:03:25;;;;;;;2.53;1.50;;;2.50;99.90;;;3.13;100.00;96839.19;5017896;28;21213;-77
2023/11/27 10:05:57;;;;;;;1.70;1.43;;;2.50;99.90;;;3.12;100.00;96828.09;5020508;28;20932;-77
2023/11/27 10:08:26;;;;;;;1.50;1.40;;;2.50;99.90;;;3.03;100.00;96831.69;5027973;28;20476;-77
2023/11/27 10:10:57;;;;;;;1.40;1.30;;;2.60;99.90;;;3.05;100.00;96830.53;5020837;28;20471;-76
2023/11/27 10:13:34;;;;;;;2.23;1.50;;;2.60;99.90;;;3.04;100.00;96817.81;5019339;28;20749;-77
2023/11/27 10:16:24;;;;;;;1.73;1.37;;;2.60;99.90;;;3.10;100.00;96816.31;5018184;28;20895;-77
2023/11/27 10:18:52;;;;;;;1.50;1.40;;;2.60;99.90;;;3.08;100.00;96811.34;5020387;28;20472;-76
2023/11/27 10:21:23;;;;;;;1.57;1.40;;;2.60;99.90;;;3.00;100.00;96801.03;5020296;28;20494;-77
2023/11/27 10:23:52;;;;;;;2.30;1.77;;;2.60;99.90;;;3.04;100.00;96797.16;5018759;28;20568;-77
2023/11/27 10:26:21;;;;;;;3.20;2.40;;;2.50;99.90;;;3.11;100.00;96792.09;5020539;28;20550;-76
2023/11/27 10:28:50;;;;;;;1.93;1.70;;;2.50;99.90;;;3.03;100.00;96780.03;5019534;28;20856;-77
2023/11/27 10:31:19;;;;;;;1.87;1.57;;;2.40;99.90;;;3.02;100.00;96770.69;5019170;28;20999;-77
2023/11/27 10:33:48;;;;;;;1.43;1.30;;;2.50;99.90;;;3.04;100.00;96750.69;5019478;28;20485;-77
2023/11/27 10:36:23;;;;;;;1.50;1.40;;;2.50;99.90;;;3.07;100.00;96745.16;5017918;28;20466;-77